createdAt,value
2023-06-25T00:00:33.225Z,4.78
2023-06-25T00:03:00.895Z,5.57
2023-06-25T00:05:29.378Z,5.57
2023-06-25T00:07:57.019Z,4.90
2023-06-25T00:10:24.750Z,5.18
2023-06-25T00:12:52.174Z,4.72
2023-06-25T00:15:19.570Z,4.78
2023-06-25T00:17:48.753Z,5.55
2023-06-25T00:20:17.536Z,5.80
2023-06-25T00:23:04.934Z,4.75
2023-06-25T00:25:33.275Z,4.90
2023-06-25T00:28:01.626Z,6.22
2023-06-25T00:30:29.473Z,5.38
2023-06-25T00:32:57.761Z,5.22
2023-06-25T00:35:29.009Z,5.80
2023-06-25T00:37:59.153Z,5.82
2023-06-25T00:40:26.917Z,4.93
2023-06-25T00:43:00.254Z,5.38
2023-06-25T00:45:28.095Z,5.22
2023-06-25T00:47:56.444Z,5.05
2023-06-25T00:50:23.934Z,5.22
2023-06-25T00:52:53.398Z,5.47
2023-06-25T00:55:21.252Z,5.47
2023-06-25T00:57:48.731Z,4.28
2023-06-25T01:00:17.955Z,5.00
2023-06-25T01:02:54.321Z,5.32
2023-06-25T01:06:00.230Z,5.55
2023-06-25T01:08:40.245Z,5.18
2023-06-25T01:11:11.403Z,5.22
2023-06-25T01:13:39.049Z,6.32
2023-06-25T01:16:07.227Z,5.28
2023-06-25T01:18:34.953Z,5.75
2023-06-25T01:21:04.944Z,4.88
2023-06-25T01:23:33.336Z,5.45
2023-06-25T01:26:01.110Z,4.82
2023-06-25T01:28:28.614Z,5.47
2023-06-25T01:30:56.641Z,4.93
2023-06-25T01:33:27.007Z,5.20
2023-06-25T01:35:54.666Z,5.28
2023-06-25T01:38:22.292Z,4.90
2023-06-25T01:40:50.178Z,4.88
2023-06-25T01:43:17.702Z,4.75
2023-06-25T01:45:45.050Z,5.22
2023-06-25T01:48:12.571Z,4.70
2023-06-25T01:50:39.857Z,4.82
2023-06-25T01:53:07.245Z,4.97
2023-06-25T01:55:35.192Z,4.97
2023-06-25T01:58:02.723Z,6.10
2023-06-25T02:00:29.968Z,4.45
2023-06-25T02:03:04.426Z,4.78
2023-06-25T02:05:32.077Z,4.57
2023-06-25T02:07:59.555Z,4.85
2023-06-25T02:10:27.941Z,5.35
2023-06-25T02:12:55.257Z,4.78
2023-06-25T02:15:22.756Z,4.72
2023-06-25T02:17:50.230Z,5.30
2023-06-25T02:20:18.366Z,5.55
2023-06-25T02:22:46.482Z,4.80
2023-06-25T02:25:13.921Z,5.03
2023-06-25T02:27:41.270Z,6.28
2023-06-25T02:30:09.447Z,5.15
2023-06-25T02:32:36.815Z,5.78
2023-06-25T02:35:04.597Z,5.07
2023-06-25T02:37:31.914Z,5.03
2023-06-25T02:39:59.168Z,4.82
2023-06-25T02:42:26.629Z,4.50
2023-06-25T02:44:53.898Z,5.57
2023-06-25T02:47:21.877Z,5.30
2023-06-25T02:49:49.355Z,4.72
2023-06-25T02:52:17.591Z,4.90
2023-06-25T02:54:44.932Z,4.57
2023-06-25T02:57:12.397Z,5.28
2023-06-25T02:59:39.687Z,6.60
2023-06-25T03:02:07.130Z,5.57
2023-06-25T03:04:34.471Z,4.82
2023-06-25T03:07:01.857Z,5.10
2023-06-25T03:09:29.292Z,5.32
2023-06-25T03:11:57.493Z,4.97
2023-06-25T03:14:34.749Z,5.20
2023-06-25T03:17:04.574Z,5.22
2023-06-25T03:19:32.085Z,4.90
2023-06-25T03:21:59.875Z,5.80
2023-06-25T03:24:28.789Z,4.80
2023-06-25T03:26:56.125Z,4.88
2023-06-25T03:29:23.564Z,5.40
2023-06-25T03:31:51.203Z,4.63
2023-06-25T03:34:22.274Z,4.60
2023-06-25T03:36:49.785Z,4.47
2023-06-25T03:39:17.502Z,4.80
2023-06-25T03:41:45.043Z,5.22
2023-06-25T03:44:12.501Z,5.15
2023-06-25T03:46:39.911Z,5.00
2023-06-25T03:49:07.456Z,4.93
2023-06-25T03:51:37.045Z,5.40
2023-06-25T03:54:05.677Z,6.30
2023-06-25T03:56:33.063Z,5.65
2023-06-25T03:59:00.425Z,6.15
2023-06-25T04:01:27.998Z,5.15
2023-06-25T04:03:55.511Z,5.63
2023-06-25T04:06:22.870Z,5.80
2023-06-25T04:08:50.233Z,5.30
2023-06-25T04:11:18.352Z,5.72
2023-06-25T04:13:46.408Z,5.60
2023-06-25T04:16:13.915Z,5.65
2023-06-25T04:18:44.567Z,6.15
2023-06-25T04:21:12.017Z,5.18
2023-06-25T04:23:40.337Z,5.00
2023-06-25T04:26:08.562Z,5.28
2023-06-25T04:28:35.995Z,5.35
2023-06-25T04:31:03.611Z,5.40
2023-06-25T04:33:31.055Z,6.88
2023-06-25T04:35:58.714Z,6.57
2023-06-25T04:38:26.257Z,5.95
2023-06-25T04:40:53.675Z,5.80
2023-06-25T04:43:21.168Z,6.65
2023-06-25T04:45:48.642Z,6.07
2023-06-25T04:48:16.130Z,6.20
2023-06-25T04:50:43.616Z,5.95
2023-06-25T04:53:11.226Z,6.63
2023-06-25T04:55:38.876Z,5.68
2023-06-25T04:58:06.971Z,6.18
2023-06-25T05:00:34.405Z,7.28
2023-06-25T05:03:01.900Z,6.22
2023-06-25T05:05:29.498Z,6.65
2023-06-25T05:07:56.946Z,7.25
2023-06-25T05:10:24.457Z,6.63
2023-06-25T05:12:51.896Z,6.05
2023-06-25T05:15:19.668Z,5.90
2023-06-25T05:17:47.202Z,5.97
2023-06-25T05:20:14.796Z,6.03
2023-06-25T05:22:42.242Z,6.00
2023-06-25T05:25:09.933Z,5.60
2023-06-25T05:27:37.408Z,6.32
2023-06-25T05:30:05.508Z,6.55
2023-06-25T05:32:33.003Z,5.40
2023-06-25T05:35:00.473Z,7.05
2023-06-25T05:37:27.899Z,6.45
2023-06-25T05:39:55.266Z,6.57
2023-06-25T05:42:22.665Z,6.03
2023-06-25T05:44:50.344Z,6.13
2023-06-25T05:47:17.785Z,5.47
2023-06-25T05:49:45.215Z,5.43
2023-06-25T05:52:12.669Z,6.70
2023-06-25T05:54:40.121Z,6.28
2023-06-25T05:57:07.436Z,6.03
2023-06-25T05:59:34.757Z,5.78
2023-06-25T06:02:02.655Z,5.68
2023-06-25T06:04:30.066Z,5.15
2023-06-25T06:06:57.368Z,5.78
2023-06-25T06:09:24.769Z,5.25
2023-06-25T06:11:52.133Z,5.53
2023-06-25T06:14:19.528Z,5.97
2023-06-25T06:16:46.808Z,5.60
2023-06-25T06:19:14.317Z,5.97
2023-06-25T06:21:41.608Z,5.00
2023-06-25T06:24:09.420Z,6.15
2023-06-25T06:26:36.730Z,5.55
2023-06-25T06:29:04.955Z,4.95
2023-06-25T06:31:33.017Z,4.78
2023-06-25T06:34:00.412Z,4.63
2023-06-25T06:36:27.898Z,5.18
2023-06-25T06:38:55.580Z,4.95
2023-06-25T06:41:23.221Z,5.35
2023-06-25T06:43:50.662Z,4.28
2023-06-25T06:46:18.142Z,3.95
2023-06-25T06:48:46.074Z,3.97
2023-06-25T06:51:13.526Z,4.65
2023-06-25T06:53:41.176Z,3.80
2023-06-25T06:56:08.564Z,3.85
2023-06-25T06:58:36.086Z,4.72
2023-06-25T07:01:03.558Z,3.97
2023-06-25T07:03:31.252Z,3.50
2023-06-25T07:05:58.751Z,4.00
2023-06-25T07:08:26.263Z,4.43
2023-06-25T07:10:53.673Z,3.58
2023-06-25T07:13:21.304Z,3.63
2023-06-25T07:15:48.740Z,3.50
2023-06-25T07:18:16.197Z,3.42
2023-06-25T07:20:43.629Z,3.70
2023-06-25T07:23:12.813Z,2.97
2023-06-25T07:25:40.306Z,3.28
2023-06-25T07:28:10.089Z,3.28
2023-06-25T07:30:38.956Z,3.20
2023-06-25T07:33:06.405Z,3.05
2023-06-25T07:35:33.866Z,2.88
2023-06-25T07:38:01.428Z,2.90
2023-06-25T07:40:28.799Z,2.97
2023-06-25T07:42:56.274Z,3.20
2023-06-25T07:45:23.709Z,3.20
2023-06-25T07:47:51.240Z,2.78
2023-06-25T07:50:18.720Z,2.85
2023-06-25T07:52:46.139Z,3.33
2023-06-25T07:55:13.550Z,3.45
2023-06-25T07:57:41.100Z,3.13
2023-06-25T08:00:09.394Z,2.88
2023-06-25T08:02:44.026Z,2.78
2023-06-25T08:05:11.902Z,2.90
2023-06-25T08:07:39.441Z,3.17
2023-06-25T08:10:07.561Z,3.22
2023-06-25T08:12:35.069Z,3.88
2023-06-25T08:15:03.212Z,3.17
2023-06-25T08:17:30.607Z,3.45
2023-06-25T08:19:58.049Z,3.25
2023-06-25T08:22:26.668Z,3.17
2023-06-25T08:24:55.712Z,3.00
2023-06-25T08:27:23.121Z,3.50
2023-06-25T08:29:50.584Z,3.38
2023-06-25T08:32:18.045Z,2.70
2023-06-25T08:34:45.463Z,3.33
2023-06-25T08:37:12.861Z,3.13
2023-06-25T08:39:40.383Z,3.05
2023-06-25T08:42:08.056Z,3.25
2023-06-25T08:44:36.469Z,3.33
2023-06-25T08:47:06.605Z,3.50
2023-06-25T08:49:36.193Z,3.00
2023-06-25T08:52:03.857Z,2.78
2023-06-25T08:54:31.351Z,3.05
2023-06-25T08:57:00.323Z,3.05
2023-06-25T08:59:27.607Z,3.75
2023-06-25T09:01:55.360Z,3.25
2023-06-25T09:04:24.010Z,3.20
2023-06-25T09:07:03.965Z,2.58
2023-06-25T09:09:32.555Z,3.13
2023-06-25T09:11:59.876Z,3.13
2023-06-25T09:14:27.727Z,3.35
2023-06-25T09:16:56.066Z,3.08
2023-06-25T09:19:23.996Z,3.13
2023-06-25T09:21:51.550Z,3.47
2023-06-25T09:24:21.359Z,2.97
2023-06-25T09:26:51.212Z,3.20
2023-06-25T09:29:20.340Z,3.30
2023-06-25T09:31:49.540Z,2.60
2023-06-25T09:34:18.677Z,3.50
2023-06-25T09:36:46.551Z,2.40
2023-06-25T09:39:14.524Z,3.65
2023-06-25T09:41:43.231Z,3.45
2023-06-25T09:44:11.447Z,3.10
2023-06-25T09:46:41.349Z,3.88
2023-06-25T09:49:09.015Z,2.78
2023-06-25T09:51:57.024Z,3.10
2023-06-25T09:54:25.594Z,3.63
2023-06-25T09:56:56.378Z,2.80
2023-06-25T09:59:24.942Z,2.92
2023-06-25T10:01:53.755Z,3.13
2023-06-25T10:04:21.866Z,3.88
2023-06-25T10:06:50.248Z,3.55
2023-06-25T10:09:17.718Z,2.63
2023-06-25T10:11:53.454Z,3.20
2023-06-25T10:14:21.070Z,3.40
2023-06-25T10:16:56.406Z,3.10
2023-06-25T10:19:25.286Z,2.83
2023-06-25T10:22:01.319Z,3.67
2023-06-25T10:24:38.766Z,3.60
2023-06-25T10:27:06.497Z,3.47
2023-06-25T10:29:41.742Z,3.58
2023-06-25T10:32:11.244Z,3.10
2023-06-25T10:34:39.172Z,3.40
2023-06-25T10:37:07.655Z,3.85
2023-06-25T10:39:39.571Z,2.88
2023-06-25T10:42:07.711Z,3.65
2023-06-25T10:44:35.643Z,3.20
2023-06-25T10:47:07.719Z,3.63
2023-06-25T10:49:35.898Z,3.45
2023-06-25T10:52:04.777Z,3.17
2023-06-25T10:54:33.577Z,4.00
2023-06-25T10:57:12.461Z,3.38
2023-06-25T10:59:40.912Z,3.17
2023-06-25T11:02:21.758Z,3.70
2023-06-25T11:04:55.576Z,4.15
2023-06-25T11:07:24.757Z,3.83
2023-06-25T11:09:59.836Z,3.58
2023-06-25T11:12:28.590Z,3.28
2023-06-25T11:14:58.157Z,3.72
2023-06-25T11:17:27.154Z,3.72
2023-06-25T11:19:55.738Z,3.17
2023-06-25T11:22:23.545Z,3.20
2023-06-25T11:24:51.232Z,3.63
2023-06-25T11:27:29.452Z,4.30
2023-06-25T11:29:58.897Z,3.47
2023-06-25T11:32:32.234Z,4.00
2023-06-25T11:35:00.820Z,3.70
2023-06-25T11:37:29.170Z,3.97
2023-06-25T11:39:57.100Z,4.20
2023-06-25T11:42:25.592Z,3.78
2023-06-25T11:45:06.568Z,4.88
2023-06-25T11:47:34.126Z,3.97
2023-06-25T11:50:02.888Z,3.13
2023-06-25T11:52:30.451Z,3.63
2023-06-25T11:54:57.880Z,3.53
2023-06-25T11:57:25.343Z,3.72
2023-06-25T11:59:52.765Z,3.60
2023-06-25T12:02:20.776Z,3.65
2023-06-25T12:04:48.316Z,3.50
2023-06-25T12:07:15.937Z,3.45
2023-06-25T12:09:43.403Z,3.67
2023-06-25T12:12:11.462Z,3.70
2023-06-25T12:14:38.851Z,3.30
2023-06-25T12:17:06.709Z,3.38
2023-06-25T12:19:34.162Z,3.28
2023-06-25T12:22:02.054Z,3.60
2023-06-25T12:24:29.471Z,3.33
2023-06-25T12:26:56.783Z,3.30
2023-06-25T12:29:24.717Z,3.47
2023-06-25T12:31:52.468Z,3.25
2023-06-25T12:34:19.895Z,3.60
2023-06-25T12:36:47.583Z,3.30
2023-06-25T12:39:15.036Z,3.65
2023-06-25T12:41:42.782Z,3.45
2023-06-25T12:44:10.256Z,3.97
2023-06-25T12:46:37.550Z,3.13
2023-06-25T12:49:05.054Z,2.80
2023-06-25T12:51:32.457Z,3.72
2023-06-25T12:53:59.855Z,3.10
2023-06-25T12:56:28.199Z,3.28
2023-06-25T12:58:55.778Z,4.22
2023-06-25T13:01:23.321Z,3.42
2023-06-25T13:03:52.157Z,3.58
2023-06-25T13:06:21.491Z,3.00
2023-06-25T13:08:48.912Z,3.33
2023-06-25T13:11:16.422Z,3.70
2023-06-25T13:13:44.000Z,3.40
2023-06-25T13:16:11.323Z,2.85
2023-06-25T13:18:41.743Z,2.92
2023-06-25T13:21:10.228Z,3.05
2023-06-25T13:23:38.864Z,3.30
2023-06-25T13:26:06.594Z,3.58
2023-06-25T13:28:34.041Z,3.45
2023-06-25T13:31:01.525Z,3.25
2023-06-25T13:33:30.338Z,3.90
2023-06-25T13:35:58.032Z,3.28
2023-06-25T13:38:26.153Z,3.35
2023-06-25T13:40:53.593Z,3.60
2023-06-25T13:43:21.099Z,3.05
2023-06-25T13:45:48.522Z,3.58
2023-06-25T13:48:17.570Z,3.00
2023-06-25T13:50:44.967Z,3.33
2023-06-25T13:53:12.699Z,3.67
2023-06-25T13:55:40.757Z,2.80
2023-06-25T13:58:09.296Z,3.45
2023-06-25T14:00:36.738Z,3.92
2023-06-25T14:03:12.726Z,3.30
2023-06-25T14:05:41.436Z,3.30
2023-06-25T14:08:10.537Z,3.08
2023-06-25T14:10:37.857Z,3.40
2023-06-25T14:13:05.313Z,3.60
2023-06-25T14:15:32.619Z,3.90
2023-06-25T14:17:59.954Z,2.80
2023-06-25T14:20:27.554Z,3.30
2023-06-25T14:22:54.892Z,3.80
2023-06-25T14:25:22.109Z,3.10
2023-06-25T14:27:49.453Z,3.22
2023-06-25T14:30:17.287Z,3.50
2023-06-25T14:32:44.759Z,3.15
2023-06-25T14:35:12.291Z,3.63
2023-06-25T14:37:39.750Z,3.28
2023-06-25T14:40:07.983Z,3.47
2023-06-25T14:42:35.973Z,3.25
2023-06-25T14:45:04.871Z,3.22
2023-06-25T14:47:32.862Z,4.30
2023-06-25T14:50:00.865Z,3.15
2023-06-25T14:52:29.179Z,3.15
2023-06-25T14:54:56.624Z,3.05
2023-06-25T14:57:25.261Z,3.70
2023-06-25T14:59:53.675Z,3.10
2023-06-25T15:02:21.945Z,2.97
2023-06-25T15:04:50.028Z,3.80
2023-06-25T15:07:18.602Z,3.50
2023-06-25T15:09:46.404Z,3.30
2023-06-25T15:12:13.822Z,3.22
2023-06-25T15:14:43.104Z,3.55
2023-06-25T15:17:12.291Z,3.20
2023-06-25T15:19:39.926Z,3.63
2023-06-25T15:22:07.413Z,3.80
2023-06-25T15:24:34.875Z,3.72
2023-06-25T15:27:02.439Z,3.40
2023-06-25T15:29:33.165Z,3.47
2023-06-25T15:32:00.994Z,2.92
2023-06-25T15:34:28.665Z,3.15
2023-06-25T15:36:56.146Z,3.78
2023-06-25T15:39:23.882Z,3.75
2023-06-25T15:41:53.318Z,3.40
2023-06-25T15:44:21.377Z,3.70
2023-06-25T15:46:51.284Z,2.92
2023-06-25T15:49:18.927Z,3.47
2023-06-25T15:51:46.232Z,3.00
2023-06-25T15:56:48.896Z,3.15
2023-06-25T15:59:16.359Z,2.90
2023-06-25T16:01:43.847Z,3.75
2023-06-25T16:04:11.560Z,3.40
2023-06-25T16:06:39.004Z,3.05
2023-06-25T16:09:06.814Z,3.78
2023-06-25T16:11:36.774Z,3.20
2023-06-25T16:14:04.201Z,3.67
2023-06-25T16:16:32.337Z,2.97
2023-06-25T16:19:24.732Z,4.15
2023-06-25T16:21:47.146Z,2.78
2023-06-25T16:24:14.656Z,3.22
2023-06-25T16:26:42.104Z,3.63
2023-06-25T16:29:09.494Z,3.72
2023-06-25T16:31:36.835Z,3.25
2023-06-25T16:34:04.247Z,3.45
2023-06-25T16:36:32.316Z,2.85
2023-06-25T16:38:59.728Z,3.67
2023-06-25T16:41:27.180Z,3.40
2023-06-25T16:43:54.600Z,3.38
2023-06-25T16:46:22.146Z,3.47
2023-06-25T16:48:49.695Z,3.50
2023-06-25T16:51:20.006Z,3.42
2023-06-25T16:53:48.508Z,3.55
2023-06-25T16:56:16.018Z,3.58
2023-06-25T16:58:45.026Z,3.72
2023-06-25T17:01:13.702Z,3.20
2023-06-25T17:03:41.408Z,3.10
2023-06-25T17:06:10.929Z,3.17
2023-06-25T17:08:38.359Z,3.38
2023-06-25T17:11:05.974Z,3.15
2023-06-25T17:13:33.417Z,3.58
2023-06-25T17:16:00.879Z,3.88
2023-06-25T17:18:28.536Z,2.92
2023-06-25T17:20:55.806Z,3.28
2023-06-25T17:23:24.094Z,3.70
2023-06-25T17:25:52.006Z,3.88
2023-06-25T17:28:19.435Z,3.35
2023-06-25T17:30:46.881Z,3.85
2023-06-25T17:33:14.369Z,3.15
2023-06-25T17:35:43.048Z,2.92
2023-06-25T17:38:10.541Z,3.10
2023-06-25T17:40:37.802Z,3.63
2023-06-25T17:43:05.188Z,3.40
2023-06-25T17:45:32.637Z,3.60
2023-06-25T17:47:59.985Z,3.58
2023-06-25T17:50:27.398Z,3.22
2023-06-25T17:52:55.130Z,3.08
2023-06-25T17:55:22.861Z,3.50
2023-06-25T17:57:50.182Z,3.90
2023-06-25T18:00:18.199Z,3.38
2023-06-25T18:02:45.745Z,2.97
2023-06-25T18:05:13.288Z,3.67
2023-06-25T18:07:40.632Z,3.92
2023-06-25T18:10:08.395Z,3.67
2023-06-25T18:12:39.499Z,3.50
2023-06-25T18:15:10.056Z,3.40
2023-06-25T18:17:40.783Z,3.45
2023-06-25T18:20:10.877Z,2.95
2023-06-25T18:22:41.537Z,3.28
2023-06-25T18:25:09.307Z,3.28
2023-06-25T18:27:36.605Z,3.60
2023-06-25T18:30:04.707Z,3.10
2023-06-25T18:32:32.057Z,3.83
2023-06-25T18:34:59.297Z,3.53
2023-06-25T18:37:27.451Z,3.35
2023-06-25T18:39:54.759Z,3.50
2023-06-25T18:42:22.088Z,3.22
2023-06-25T18:44:49.569Z,3.30
2023-06-25T18:47:22.205Z,3.17
2023-06-25T18:49:50.252Z,3.92
2023-06-25T18:52:20.182Z,3.28
2023-06-25T18:54:48.125Z,3.72
2023-06-25T18:57:15.588Z,3.08
2023-06-25T18:59:43.059Z,3.72
2023-06-25T19:02:10.634Z,3.15
2023-06-25T19:04:38.533Z,4.25
2023-06-25T19:07:06.308Z,3.35
2023-06-25T19:09:33.756Z,3.70
2023-06-25T19:12:01.435Z,3.90
2023-06-25T19:14:28.920Z,3.42
2023-06-25T19:16:57.753Z,3.25
2023-06-25T19:19:26.294Z,3.35
2023-06-25T19:21:54.762Z,3.20
2023-06-25T19:24:22.274Z,3.42
2023-06-25T19:26:49.741Z,3.45
2023-06-25T19:29:17.399Z,3.75
2023-06-25T19:31:44.802Z,3.35
2023-06-25T19:34:12.407Z,3.60
2023-06-25T19:36:40.089Z,4.53
2023-06-25T19:39:07.627Z,4.15
2023-06-25T19:41:35.131Z,4.65
2023-06-25T19:44:02.580Z,4.35
2023-06-25T19:46:30.502Z,4.35
2023-06-25T19:48:57.968Z,4.30
2023-06-25T19:51:25.467Z,3.53
2023-06-25T19:53:52.876Z,3.40
2023-06-25T19:56:20.399Z,3.53
2023-06-25T19:58:47.812Z,4.45
2023-06-25T20:01:15.542Z,4.22
2023-06-25T20:03:42.990Z,4.22
2023-06-25T20:06:10.425Z,4.15
2023-06-25T20:08:38.206Z,4.18
2023-06-25T20:11:05.724Z,5.03
2023-06-25T20:13:33.259Z,3.67
2023-06-25T20:16:00.706Z,3.78
2023-06-25T20:18:28.098Z,4.22
2023-06-25T20:20:55.585Z,5.10
2023-06-25T20:23:23.108Z,5.63
2023-06-25T20:25:50.722Z,4.63
2023-06-25T20:28:18.353Z,4.95
2023-06-25T20:30:45.922Z,4.65
2023-06-25T20:33:13.792Z,4.35
2023-06-25T20:35:41.434Z,4.90
2023-06-25T20:38:08.864Z,4.68
2023-06-25T20:40:36.470Z,4.65
2023-06-25T20:43:06.285Z,4.45
2023-06-25T20:45:33.686Z,5.45
2023-06-25T20:48:01.048Z,5.13
2023-06-25T20:50:28.507Z,4.32
2023-06-25T20:52:55.982Z,4.30
2023-06-25T20:55:23.267Z,4.30
2023-06-25T20:57:50.945Z,4.72
2023-06-25T21:00:18.980Z,4.57
2023-06-25T21:02:46.887Z,4.45
2023-06-25T21:05:14.643Z,4.80
2023-06-25T21:07:42.195Z,4.30
2023-06-25T21:10:09.938Z,4.72
2023-06-25T21:12:37.329Z,5.95
2023-06-25T21:15:05.203Z,5.13
2023-06-25T21:17:32.615Z,4.85
2023-06-25T21:19:59.901Z,4.72
2023-06-25T21:22:27.337Z,4.10
2023-06-25T21:24:54.747Z,4.90
2023-06-25T21:27:22.111Z,4.18
2023-06-25T21:29:49.430Z,5.40
2023-06-25T21:32:16.653Z,5.93
2023-06-25T21:34:45.275Z,4.82
2023-06-25T21:37:12.612Z,4.55
2023-06-25T21:39:39.987Z,4.45
2023-06-25T21:42:07.439Z,5.47
2023-06-25T21:44:34.677Z,4.85
2023-06-25T21:47:02.189Z,5.07
2023-06-25T21:49:29.653Z,4.68
2023-06-25T21:52:00.146Z,5.55
2023-06-25T21:54:28.498Z,4.82
2023-06-25T21:56:55.900Z,5.15
2023-06-25T21:59:23.430Z,4.80
2023-06-25T22:01:50.815Z,5.03
2023-06-25T22:04:18.270Z,5.22
2023-06-25T22:06:53.821Z,5.00
2023-06-25T22:09:22.274Z,6.03
2023-06-25T22:11:51.014Z,4.50
2023-06-25T22:14:18.860Z,5.13
2023-06-25T22:16:46.204Z,4.40
2023-06-25T22:19:13.646Z,5.30
2023-06-25T22:21:41.399Z,5.82
2023-06-25T22:24:08.800Z,4.63
2023-06-25T22:26:36.230Z,5.10
2023-06-25T22:29:04.779Z,4.43
2023-06-25T22:31:32.216Z,5.05
2023-06-25T22:33:59.713Z,5.00
2023-06-25T22:36:27.535Z,5.93
2023-06-25T22:38:55.142Z,4.55
2023-06-25T22:41:22.536Z,5.35
2023-06-25T22:43:49.972Z,5.00
2023-06-25T22:46:17.420Z,4.82
2023-06-25T22:48:47.293Z,5.80
2023-06-25T22:51:14.673Z,5.20
2023-06-25T22:53:42.061Z,5.85
2023-06-25T22:56:10.078Z,5.07
2023-06-25T22:58:37.623Z,4.65
2023-06-25T23:01:05.333Z,5.20
2023-06-25T23:03:32.922Z,4.70
2023-06-25T23:06:00.739Z,4.68
2023-06-25T23:08:28.392Z,5.30
2023-06-25T23:10:55.706Z,5.20
2023-06-25T23:13:23.347Z,5.53
2023-06-25T23:15:50.743Z,5.35
2023-06-25T23:18:18.220Z,4.55
2023-06-25T23:20:45.674Z,5.80
2023-06-25T23:23:13.264Z,5.90
2023-06-25T23:25:41.032Z,5.30
2023-06-25T23:28:09.359Z,5.55
2023-06-25T23:30:38.423Z,5.72
2023-06-25T23:33:06.402Z,5.53
2023-06-25T23:35:34.295Z,4.65
2023-06-25T23:38:01.788Z,4.90
2023-06-25T23:40:29.254Z,4.90
2023-06-25T23:42:56.641Z,4.90
2023-06-25T23:45:23.912Z,5.18
2023-06-25T23:47:51.355Z,5.45
2023-06-25T23:50:18.820Z,5.82
2023-06-25T23:52:46.165Z,5.78
2023-06-25T23:55:13.551Z,5.65
2023-06-25T23:57:41.003Z,4.70
